sensor_id;sensor_type;location;lat;lon;timestamp;P1;durP1;ratioP1;P2;durP2;ratioP2
35364;SDS011;21464;48.112;11.530;2022-09-17T00:02:23;6.87;;;5.70;;
35364;SDS011;21464;48.112;11.530;2022-09-17T00:04:50;7.50;;;5.63;;
35364;SDS011;21464;48.112;11.530;2022-09-17T00:07:16;6.00;;;5.40;;
35364;SDS011;21464;48.112;11.530;2022-09-17T00:09:42;5.82;;;5.32;;
35364;SDS011;21464;48.112;11.530;2022-09-17T00:12:09;6.20;;;5.60;;
35364;SDS011;21464;48.112;11.530;2022-09-17T00:14:35;6.07;;;5.40;;
35364;SDS011;21464;48.112;11.530;2022-09-17T00:17:00;7.27;;;5.13;;
35364;SDS011;21464;48.112;11.530;2022-09-17T00:19:26;5.47;;;4.97;;
35364;SDS011;21464;48.112;11.530;2022-09-17T00:21:52;5.57;;;5.03;;
35364;SDS011;21464;48.112;11.530;2022-09-17T00:24:18;6.30;;;4.53;;
35364;SDS011;21464;48.112;11.530;2022-09-17T00:26:45;5.57;;;4.18;;
35364;SDS011;21464;48.112;11.530;2022-09-17T00:29:11;5.43;;;3.37;;
35364;SDS011;21464;48.112;11.530;2022-09-17T00:31:37;5.27;;;3.80;;
35364;SDS011;21464;48.112;11.530;2022-09-17T00:34:04;4.07;;;3.40;;
35364;SDS011;21464;48.112;11.530;2022-09-17T00:36:30;3.17;;;2.87;;
35364;SDS011;21464;48.112;11.530;2022-09-17T00:38:58;3.67;;;3.38;;
35364;SDS011;21464;48.112;11.530;2022-09-17T00:41:25;5.10;;;3.27;;
35364;SDS011;21464;48.112;11.530;2022-09-17T00:43:54;3.80;;;3.40;;
35364;SDS011;21464;48.112;11.530;2022-09-17T00:48:47;3.45;;;2.90;;
35364;SDS011;21464;48.112;11.530;2022-09-17T00:51:14;3.42;;;2.92;;
35364;SDS011;21464;48.112;11.530;2022-09-17T00:53:42;3.83;;;2.90;;
35364;SDS011;21464;48.112;11.530;2022-09-17T00:56:10;3.40;;;3.03;;
35364;SDS011;21464;48.112;11.530;2022-09-17T00:58:39;3.53;;;3.05;;
35364;SDS011;21464;48.112;11.530;2022-09-17T01:01:05;3.57;;;2.70;;
35364;SDS011;21464;48.112;11.530;2022-09-17T01:03:31;2.90;;;2.60;;
35364;SDS011;21464;48.112;11.530;2022-09-17T01:08:33;4.23;;;2.87;;
35364;SDS011;21464;48.112;11.530;2022-09-17T01:15:58;3.07;;;2.73;;
35364;SDS011;21464;48.112;11.530;2022-09-17T01:39:25;3.00;;;2.63;;
35364;SDS011;21464;48.112;11.530;2022-09-17T01:41:55;3.00;;;2.67;;
35364;SDS011;21464;48.112;11.530;2022-09-17T01:46:56;3.47;;;2.40;;
35364;SDS011;21464;48.112;11.530;2022-09-17T01:49:26;3.33;;;2.37;;
35364;SDS011;21464;48.112;11.530;2022-09-17T01:51:53;3.83;;;2.40;;
35364;SDS011;21464;48.112;11.530;2022-09-17T01:54:22;3.27;;;2.40;;
35364;SDS011;21464;48.112;11.530;2022-09-17T01:56:51;2.55;;;2.35;;
35364;SDS011;21464;48.112;11.530;2022-09-17T01:59:22;2.60;;;2.35;;
35364;SDS011;21464;48.112;11.530;2022-09-17T02:01:51;3.13;;;2.50;;
35364;SDS011;21464;48.112;11.530;2022-09-17T02:04:22;2.80;;;2.43;;
35364;SDS011;21464;48.112;11.530;2022-09-17T02:06:52;2.70;;;2.50;;
35364;SDS011;21464;48.112;11.530;2022-09-17T02:09:22;2.60;;;2.40;;
35364;SDS011;21464;48.112;11.530;2022-09-17T02:11:51;2.37;;;2.17;;
35364;SDS011;21464;48.112;11.530;2022-09-17T02:14:34;3.50;;;2.23;;
35364;SDS011;21464;48.112;11.530;2022-09-17T02:17:02;2.13;;;1.90;;
35364;SDS011;21464;48.112;11.530;2022-09-17T02:19:31;3.67;;;2.20;;
35364;SDS011;21464;48.112;11.530;2022-09-17T02:24:43;5.00;;;1.93;;
35364;SDS011;21464;48.112;11.530;2022-09-17T02:27:20;2.13;;;2.00;;
35364;SDS011;21464;48.112;11.530;2022-09-17T02:29:49;2.10;;;1.90;;
35364;SDS011;21464;48.112;11.530;2022-09-17T02:32:15;2.13;;;2.03;;
35364;SDS011;21464;48.112;11.530;2022-09-17T02:34:41;2.00;;;1.90;;
35364;SDS011;21464;48.112;11.530;2022-09-17T02:37:06;1.90;;;1.80;;
35364;SDS011;21464;48.112;11.530;2022-09-17T02:39:33;2.73;;;2.07;;
35364;SDS011;21464;48.112;11.530;2022-09-17T02:42:09;2.10;;;1.97;;
35364;SDS011;21464;48.112;11.530;2022-09-17T02:45:00;2.70;;;1.80;;
35364;SDS011;21464;48.112;11.530;2022-09-17T03:00:42;2.50;;;2.30;;
35364;SDS011;21464;48.112;11.530;2022-09-17T03:03:11;2.10;;;1.90;;
35364;SDS011;21464;48.112;11.530;2022-09-17T03:05:38;2.23;;;2.03;;
35364;SDS011;21464;48.112;11.530;2022-09-17T03:08:07;2.67;;;2.10;;
35364;SDS011;21464;48.112;11.530;2022-09-17T03:10:34;2.00;;;1.90;;
35364;SDS011;21464;48.112;11.530;2022-09-17T03:13:00;1.80;;;1.70;;
35364;SDS011;21464;48.112;11.530;2022-09-17T03:15:25;1.87;;;1.77;;
35364;SDS011;21464;48.112;11.530;2022-09-17T03:17:52;1.90;;;1.70;;
35364;SDS011;21464;48.112;11.530;2022-09-17T03:20:18;2.07;;;1.90;;
35364;SDS011;21464;48.112;11.530;2022-09-17T03:22:44;2.28;;;1.80;;
35364;SDS011;21464;48.112;11.530;2022-09-17T03:25:10;2.20;;;1.60;;
35364;SDS011;21464;48.112;11.530;2022-09-17T03:27:36;3.17;;;1.70;;
35364;SDS011;21464;48.112;11.530;2022-09-17T03:30:02;2.80;;;1.43;;
35364;SDS011;21464;48.112;11.530;2022-09-17T03:32:28;2.05;;;1.80;;
35364;SDS011;21464;48.112;11.530;2022-09-17T03:34:54;4.17;;;2.00;;
35364;SDS011;21464;48.112;11.530;2022-09-17T03:37:20;2.40;;;1.77;;
35364;SDS011;21464;48.112;11.530;2022-09-17T03:39:46;2.00;;;1.90;;
35364;SDS011;21464;48.112;11.530;2022-09-17T03:42:12;2.00;;;1.80;;
35364;SDS011;21464;48.112;11.530;2022-09-17T03:44:38;2.13;;;1.93;;
35364;SDS011;21464;48.112;11.530;2022-09-17T03:47:04;2.63;;;1.90;;
35364;SDS011;21464;48.112;11.530;2022-09-17T03:49:30;2.43;;;2.23;;
35364;SDS011;21464;48.112;11.530;2022-09-17T03:51:55;2.23;;;2.10;;
35364;SDS011;21464;48.112;11.530;2022-09-17T03:54:21;2.67;;;2.40;;
35364;SDS011;21464;48.112;11.530;2022-09-17T03:56:47;2.65;;;2.45;;
35364;SDS011;21464;48.112;11.530;2022-09-17T03:59:13;2.25;;;2.10;;
35364;SDS011;21464;48.112;11.530;2022-09-17T04:01:39;3.73;;;2.10;;
35364;SDS011;21464;48.112;11.530;2022-09-17T04:04:05;4.70;;;2.27;;
35364;SDS011;21464;48.112;11.530;2022-09-17T04:06:31;2.93;;;2.30;;
35364;SDS011;21464;48.112;11.530;2022-09-17T04:08:57;2.60;;;2.40;;
35364;SDS011;21464;48.112;11.530;2022-09-17T04:11:24;3.60;;;2.20;;
35364;SDS011;21464;48.112;11.530;2022-09-17T04:13:50;2.20;;;2.00;;
35364;SDS011;21464;48.112;11.530;2022-09-17T04:16:16;2.33;;;2.03;;
35364;SDS011;21464;48.112;11.530;2022-09-17T04:18:42;4.77;;;2.40;;
35364;SDS011;21464;48.112;11.530;2022-09-17T04:21:08;2.57;;;2.37;;
35364;SDS011;21464;48.112;11.530;2022-09-17T04:23:34;2.88;;;2.30;;
35364;SDS011;21464;48.112;11.530;2022-09-17T04:25:59;2.70;;;2.30;;
35364;SDS011;21464;48.112;11.530;2022-09-17T04:28:25;2.33;;;2.23;;
35364;SDS011;21464;48.112;11.530;2022-09-17T04:30:51;2.73;;;2.53;;
35364;SDS011;21464;48.112;11.530;2022-09-17T04:33:17;2.97;;;2.30;;
35364;SDS011;21464;48.112;11.530;2022-09-17T04:35:43;2.63;;;2.43;;
35364;SDS011;21464;48.112;11.530;2022-09-17T04:38:09;2.20;;;2.00;;
35364;SDS011;21464;48.112;11.530;2022-09-17T04:40:35;2.80;;;2.50;;
35364;SDS011;21464;48.112;11.530;2022-09-17T04:43:01;2.43;;;2.20;;
35364;SDS011;21464;48.112;11.530;2022-09-17T04:45:28;2.93;;;2.40;;
35364;SDS011;21464;48.112;11.530;2022-09-17T04:47:54;3.13;;;2.60;;
35364;SDS011;21464;48.112;11.530;2022-09-17T04:50:20;2.67;;;2.27;;
35364;SDS011;21464;48.112;11.530;2022-09-17T04:52:46;2.30;;;2.13;;
35364;SDS011;21464;48.112;11.530;2022-09-17T04:55:13;3.20;;;2.20;;
35364;SDS011;21464;48.112;11.530;2022-09-17T04:57:46;2.57;;;1.80;;
35364;SDS011;21464;48.112;11.530;2022-09-17T05:00:13;3.53;;;2.20;;
35364;SDS011;21464;48.112;11.530;2022-09-17T05:02:40;5.43;;;1.90;;
35364;SDS011;21464;48.112;11.530;2022-09-17T05:05:06;4.20;;;2.40;;
35364;SDS011;21464;48.112;11.530;2022-09-17T05:07:32;2.37;;;2.10;;
35364;SDS011;21464;48.112;11.530;2022-09-17T05:09:58;3.17;;;1.90;;
35364;SDS011;21464;48.112;11.530;2022-09-17T05:12:24;2.70;;;2.08;;
35364;SDS011;21464;48.112;11.530;2022-09-17T05:14:49;2.17;;;2.07;;
35364;SDS011;21464;48.112;11.530;2022-09-17T05:17:15;2.43;;;2.23;;
35364;SDS011;21464;48.112;11.530;2022-09-17T05:19:41;3.00;;;2.03;;
35364;SDS011;21464;48.112;11.530;2022-09-17T05:22:07;3.77;;;2.40;;
35364;SDS011;21464;48.112;11.530;2022-09-17T05:24:33;3.20;;;2.00;;
35364;SDS011;21464;48.112;11.530;2022-09-17T05:27:07;2.30;;;2.10;;
35364;SDS011;21464;48.112;11.530;2022-09-17T05:29:32;2.77;;;2.20;;
35364;SDS011;21464;48.112;11.530;2022-09-17T05:31:58;4.13;;;2.00;;
35364;SDS011;21464;48.112;11.530;2022-09-17T05:34:24;2.83;;;2.23;;
35364;SDS011;21464;48.112;11.530;2022-09-17T05:36:50;2.28;;;2.08;;
35364;SDS011;21464;48.112;11.530;2022-09-17T05:39:16;2.40;;;2.10;;
35364;SDS011;21464;48.112;11.530;2022-09-17T05:41:42;3.90;;;2.10;;
35364;SDS011;21464;48.112;11.530;2022-09-17T05:44:08;2.63;;;1.67;;
35364;SDS011;21464;48.112;11.530;2022-09-17T05:46:34;2.10;;;1.90;;
35364;SDS011;21464;48.112;11.530;2022-09-17T05:49:00;3.93;;;2.20;;
35364;SDS011;21464;48.112;11.530;2022-09-17T05:51:26;5.27;;;1.67;;
35364;SDS011;21464;48.112;11.530;2022-09-17T05:53:53;2.07;;;1.80;;
35364;SDS011;21464;48.112;11.530;2022-09-17T05:56:19;2.43;;;2.00;;
35364;SDS011;21464;48.112;11.530;2022-09-17T05:58:46;2.10;;;1.90;;
35364;SDS011;21464;48.112;11.530;2022-09-17T06:01:12;1.87;;;1.77;;
35364;SDS011;21464;48.112;11.530;2022-09-17T06:03:41;3.07;;;1.90;;
35364;SDS011;21464;48.112;11.530;2022-09-17T06:06:07;2.50;;;2.20;;
35364;SDS011;21464;48.112;11.530;2022-09-17T06:08:33;2.20;;;1.80;;
35364;SDS011;21464;48.112;11.530;2022-09-17T06:11:05;2.80;;;1.90;;
35364;SDS011;21464;48.112;11.530;2022-09-17T06:13:31;2.50;;;1.93;;
35364;SDS011;21464;48.112;11.530;2022-09-17T06:15:58;4.07;;;1.80;;
35364;SDS011;21464;48.112;11.530;2022-09-17T06:18:24;2.50;;;1.97;;
35364;SDS011;21464;48.112;11.530;2022-09-17T06:20:56;4.83;;;2.20;;
35364;SDS011;21464;48.112;11.530;2022-09-17T06:23:22;3.77;;;1.83;;
35364;SDS011;21464;48.112;11.530;2022-09-17T06:28:17;1.93;;;1.67;;
35364;SDS011;21464;48.112;11.530;2022-09-17T06:30:43;4.10;;;1.93;;
35364;SDS011;21464;48.112;11.530;2022-09-17T06:33:09;4.10;;;1.87;;
35364;SDS011;21464;48.112;11.530;2022-09-17T06:35:35;1.60;;;1.50;;
35364;SDS011;21464;48.112;11.530;2022-09-17T06:38:03;2.03;;;1.70;;
35364;SDS011;21464;48.112;11.530;2022-09-17T06:40:29;1.70;;;1.60;;
35364;SDS011;21464;48.112;11.530;2022-09-17T06:42:58;4.77;;;2.33;;
35364;SDS011;21464;48.112;11.530;2022-09-17T06:45:24;4.43;;;1.87;;
35364;SDS011;21464;48.112;11.530;2022-09-17T06:47:50;3.53;;;1.70;;
35364;SDS011;21464;48.112;11.530;2022-09-17T06:50:16;4.43;;;1.77;;
35364;SDS011;21464;48.112;11.530;2022-09-17T06:52:52;3.10;;;1.80;;
35364;SDS011;21464;48.112;11.530;2022-09-17T06:55:19;4.13;;;2.10;;
35364;SDS011;21464;48.112;11.530;2022-09-17T06:57:45;3.70;;;1.77;;
35364;SDS011;21464;48.112;11.530;2022-09-17T07:00:11;4.23;;;1.80;;
35364;SDS011;21464;48.112;11.530;2022-09-17T07:02:37;1.70;;;1.57;;
35364;SDS011;21464;48.112;11.530;2022-09-17T07:05:03;4.63;;;2.00;;
35364;SDS011;21464;48.112;11.530;2022-09-17T07:07:30;3.40;;;2.07;;
35364;SDS011;21464;48.112;11.530;2022-09-17T07:09:55;3.00;;;2.33;;
35364;SDS011;21464;48.112;11.530;2022-09-17T07:12:21;4.30;;;2.00;;
35364;SDS011;21464;48.112;11.530;2022-09-17T07:14:47;3.23;;;1.70;;
35364;SDS011;21464;48.112;11.530;2022-09-17T07:17:13;3.27;;;1.60;;
35364;SDS011;21464;48.112;11.530;2022-09-17T07:19:39;3.53;;;1.60;;
35364;SDS011;21464;48.112;11.530;2022-09-17T07:22:05;3.90;;;1.90;;
35364;SDS011;21464;48.112;11.530;2022-09-17T07:24:32;5.00;;;1.87;;
35364;SDS011;21464;48.112;11.530;2022-09-17T07:26:58;5.23;;;2.00;;
35364;SDS011;21464;48.112;11.530;2022-09-17T07:29:24;5.27;;;1.60;;
35364;SDS011;21464;48.112;11.530;2022-09-17T07:31:53;4.30;;;1.50;;
35364;SDS011;21464;48.112;11.530;2022-09-17T07:34:19;5.27;;;1.60;;
35364;SDS011;21464;48.112;11.530;2022-09-17T07:36:45;2.67;;;1.80;;
35364;SDS011;21464;48.112;11.530;2022-09-17T07:39:11;3.43;;;1.73;;
35364;SDS011;21464;48.112;11.530;2022-09-17T07:41:40;2.47;;;1.53;;
35364;SDS011;21464;48.112;11.530;2022-09-17T07:44:06;8.03;;;2.20;;
35364;SDS011;21464;48.112;11.530;2022-09-17T07:46:32;2.77;;;1.40;;
35364;SDS011;21464;48.112;11.530;2022-09-17T07:48:58;4.53;;;1.50;;
35364;SDS011;21464;48.112;11.530;2022-09-17T07:51:25;4.00;;;1.70;;
35364;SDS011;21464;48.112;11.530;2022-09-17T07:53:53;4.30;;;1.60;;
35364;SDS011;21464;48.112;11.530;2022-09-17T07:56:19;2.83;;;1.33;;
35364;SDS011;21464;48.112;11.530;2022-09-17T07:58:45;3.47;;;1.50;;
35364;SDS011;21464;48.112;11.530;2022-09-17T08:01:12;3.53;;;1.77;;
35364;SDS011;21464;48.112;11.530;2022-09-17T08:03:41;3.87;;;1.70;;
35364;SDS011;21464;48.112;11.530;2022-09-17T08:06:12;5.03;;;1.73;;
35364;SDS011;21464;48.112;11.530;2022-09-17T08:08:38;2.73;;;1.47;;
35364;SDS011;21464;48.112;11.530;2022-09-17T08:11:05;5.30;;;1.90;;
35364;SDS011;21464;48.112;11.530;2022-09-17T08:13:32;3.10;;;1.50;;
35364;SDS011;21464;48.112;11.530;2022-09-17T08:16:01;3.60;;;1.70;;
35364;SDS011;21464;48.112;11.530;2022-09-17T08:18:28;3.23;;;1.43;;
35364;SDS011;21464;48.112;11.530;2022-09-17T08:20:57;2.87;;;1.40;;
35364;SDS011;21464;48.112;11.530;2022-09-17T08:23:24;1.60;;;1.20;;
35364;SDS011;21464;48.112;11.530;2022-09-17T08:25:51;3.13;;;1.40;;
35364;SDS011;21464;48.112;11.530;2022-09-17T08:28:17;3.70;;;1.60;;
35364;SDS011;21464;48.112;11.530;2022-09-17T08:30:43;5.53;;;1.80;;
35364;SDS011;21464;48.112;11.530;2022-09-17T08:33:11;3.93;;;1.90;;
35364;SDS011;21464;48.112;11.530;2022-09-17T08:35:36;3.97;;;1.77;;
35364;SDS011;21464;48.112;11.530;2022-09-17T08:38:02;1.60;;;1.50;;
35364;SDS011;21464;48.112;11.530;2022-09-17T08:40:28;4.77;;;1.80;;
35364;SDS011;21464;48.112;11.530;2022-09-17T08:42:54;2.67;;;1.43;;
35364;SDS011;21464;48.112;11.530;2022-09-17T08:45:22;3.33;;;1.60;;
35364;SDS011;21464;48.112;11.530;2022-09-17T08:47:48;5.27;;;1.67;;
35364;SDS011;21464;48.112;11.530;2022-09-17T08:50:28;5.33;;;1.80;;
35364;SDS011;21464;48.112;11.530;2022-09-17T08:55:59;3.57;;;1.53;;
35364;SDS011;21464;48.112;11.530;2022-09-17T09:04:10;3.00;;;1.70;;
35364;SDS011;21464;48.112;11.530;2022-09-17T09:06:36;3.43;;;1.70;;
35364;SDS011;21464;48.112;11.530;2022-09-17T09:09:13;3.67;;;1.60;;
35364;SDS011;21464;48.112;11.530;2022-09-17T09:11:40;4.37;;;1.73;;
35364;SDS011;21464;48.112;11.530;2022-09-17T09:16:40;4.97;;;1.77;;
35364;SDS011;21464;48.112;11.530;2022-09-17T09:19:26;5.23;;;1.73;;
35364;SDS011;21464;48.112;11.530;2022-09-17T09:22:05;2.87;;;1.40;;
35364;SDS011;21464;48.112;11.530;2022-09-17T09:25:01;6.83;;;1.80;;
35364;SDS011;21464;48.112;11.530;2022-09-17T09:27:30;3.20;;;1.43;;
35364;SDS011;21464;48.112;11.530;2022-09-17T09:30:01;2.60;;;1.50;;
35364;SDS011;21464;48.112;11.530;2022-09-17T09:35:02;6.07;;;1.77;;
35364;SDS011;21464;48.112;11.530;2022-09-17T09:37:34;3.30;;;1.70;;
35364;SDS011;21464;48.112;11.530;2022-09-17T09:40:12;4.27;;;1.83;;
35364;SDS011;21464;48.112;11.530;2022-09-17T09:42:40;3.43;;;1.53;;
35364;SDS011;21464;48.112;11.530;2022-09-17T09:45:11;7.50;;;2.07;;
35364;SDS011;21464;48.112;11.530;2022-09-17T09:47:59;4.53;;;1.67;;
35364;SDS011;21464;48.112;11.530;2022-09-17T09:52:57;6.53;;;1.90;;
35364;SDS011;21464;48.112;11.530;2022-09-17T09:55:34;3.40;;;1.77;;
35364;SDS011;21464;48.112;11.530;2022-09-17T10:00:46;3.67;;;1.70;;
35364;SDS011;21464;48.112;11.530;2022-09-17T10:08:37;3.50;;;1.67;;
35364;SDS011;21464;48.112;11.530;2022-09-17T10:11:05;3.50;;;1.47;;
35364;SDS011;21464;48.112;11.530;2022-09-17T10:13:32;4.33;;;1.67;;
35364;SDS011;21464;48.112;11.530;2022-09-17T10:18:47;4.80;;;1.90;;
35364;SDS011;21464;48.112;11.530;2022-09-17T10:21:56;5.77;;;1.87;;
35364;SDS011;21464;48.112;11.530;2022-09-17T10:24:08;5.60;;;1.90;;
35364;SDS011;21464;48.112;11.530;2022-09-17T10:26:38;7.83;;;2.00;;
35364;SDS011;21464;48.112;11.530;2022-09-17T10:29:05;4.53;;;2.40;;
35364;SDS011;21464;48.112;11.530;2022-09-17T10:34:17;5.83;;;2.30;;
35364;SDS011;21464;48.112;11.530;2022-09-17T10:36:44;3.40;;;2.40;;
35364;SDS011;21464;48.112;11.530;2022-09-17T10:39:28;5.87;;;3.00;;
35364;SDS011;21464;48.112;11.530;2022-09-17T10:41:55;6.93;;;2.97;;
35364;SDS011;21464;48.112;11.530;2022-09-17T10:44:22;3.87;;;2.20;;
35364;SDS011;21464;48.112;11.530;2022-09-17T10:46:49;4.47;;;1.90;;
35364;SDS011;21464;48.112;11.530;2022-09-17T10:51:47;4.63;;;2.63;;
35364;SDS011;21464;48.112;11.530;2022-09-17T10:56:43;5.17;;;3.17;;
35364;SDS011;21464;48.112;11.530;2022-09-17T11:04:25;5.57;;;3.07;;
35364;SDS011;21464;48.112;11.530;2022-09-17T11:19:44;5.70;;;2.60;;
35364;SDS011;21464;48.112;11.530;2022-09-17T11:22:22;2.33;;;1.80;;
35364;SDS011;21464;48.112;11.530;2022-09-17T11:24:55;3.40;;;1.80;;
35364;SDS011;21464;48.112;11.530;2022-09-17T11:29:58;2.43;;;2.00;;
35364;SDS011;21464;48.112;11.530;2022-09-17T11:37:30;6.10;;;2.23;;
35364;SDS011;21464;48.112;11.530;2022-09-17T11:42:37;4.93;;;1.97;;
35364;SDS011;21464;48.112;11.530;2022-09-17T11:45:12;2.67;;;2.17;;
35364;SDS011;21464;48.112;11.530;2022-09-17T11:47:41;3.20;;;2.00;;
35364;SDS011;21464;48.112;11.530;2022-09-17T11:50:31;2.83;;;1.93;;
35364;SDS011;21464;48.112;11.530;2022-09-17T11:57:51;2.93;;;1.50;;
35364;SDS011;21464;48.112;11.530;2022-09-17T12:00:22;2.60;;;1.17;;
35364;SDS011;21464;48.112;11.530;2022-09-17T12:05:16;3.00;;;1.40;;
35364;SDS011;21464;48.112;11.530;2022-09-17T12:07:46;1.80;;;1.30;;
35364;SDS011;21464;48.112;11.530;2022-09-17T12:12:56;1.97;;;1.30;;
35364;SDS011;21464;48.112;11.530;2022-09-17T12:15:26;2.77;;;1.60;;
35364;SDS011;21464;48.112;11.530;2022-09-17T12:20:33;2.80;;;1.70;;
35364;SDS011;21464;48.112;11.530;2022-09-17T12:23:01;2.37;;;1.53;;
35364;SDS011;21464;48.112;11.530;2022-09-17T12:25:32;2.87;;;1.63;;
35364;SDS011;21464;48.112;11.530;2022-09-17T12:28:02;3.27;;;1.77;;
35364;SDS011;21464;48.112;11.530;2022-09-17T12:30:37;5.17;;;1.97;;
35364;SDS011;21464;48.112;11.530;2022-09-17T12:38:34;9.57;;;2.67;;
35364;SDS011;21464;48.112;11.530;2022-09-17T12:46:05;8.83;;;3.83;;
35364;SDS011;21464;48.112;11.530;2022-09-17T12:48:51;8.20;;;3.93;;
35364;SDS011;21464;48.112;11.530;2022-09-17T12:53:57;6.40;;;4.37;;
35364;SDS011;21464;48.112;11.530;2022-09-17T13:09:45;3.90;;;2.10;;
35364;SDS011;21464;48.112;11.530;2022-09-17T13:12:24;19.40;;;2.97;;
35364;SDS011;21464;48.112;11.530;2022-09-17T13:17:50;3.13;;;1.87;;
35364;SDS011;21464;48.112;11.530;2022-09-17T13:20:25;5.03;;;3.60;;
35364;SDS011;21464;48.112;11.530;2022-09-17T13:22:52;9.38;;;3.58;;
35364;SDS011;21464;48.112;11.530;2022-09-17T13:25:20;8.03;;;4.23;;
35364;SDS011;21464;48.112;11.530;2022-09-17T13:27:46;10.17;;;4.63;;
35364;SDS011;21464;48.112;11.530;2022-09-17T13:30:13;9.47;;;5.03;;
35364;SDS011;21464;48.112;11.530;2022-09-17T13:37:42;14.23;;;6.30;;
35364;SDS011;21464;48.112;11.530;2022-09-17T13:42:56;55.60;;;8.67;;
35364;SDS011;21464;48.112;11.530;2022-09-17T13:45:24;10.03;;;4.13;;
35364;SDS011;21464;48.112;11.530;2022-09-17T13:50:59;15.63;;;6.10;;
35364;SDS011;21464;48.112;11.530;2022-09-17T13:53:07;11.30;;;5.37;;
35364;SDS011;21464;48.112;11.530;2022-09-17T13:55:48;11.63;;;5.90;;
35364;SDS011;21464;48.112;11.530;2022-09-17T14:01:03;14.30;;;7.47;;
35364;SDS011;21464;48.112;11.530;2022-09-17T14:05:56;10.07;;;5.90;;
35364;SDS011;21464;48.112;11.530;2022-09-17T14:08:24;12.83;;;5.87;;
35364;SDS011;21464;48.112;11.530;2022-09-17T14:10:53;7.67;;;4.80;;
35364;SDS011;21464;48.112;11.530;2022-09-17T14:13:25;7.57;;;4.90;;
35364;SDS011;21464;48.112;11.530;2022-09-17T14:15:57;9.87;;;4.67;;
35364;SDS011;21464;48.112;11.530;2022-09-17T14:20:52;3.50;;;2.30;;
35364;SDS011;21464;48.112;11.530;2022-09-17T14:23:19;3.83;;;2.30;;
35364;SDS011;21464;48.112;11.530;2022-09-17T14:25:51;2.50;;;2.20;;
35364;SDS011;21464;48.112;11.530;2022-09-17T14:30:47;3.63;;;2.10;;
35364;SDS011;21464;48.112;11.530;2022-09-17T14:33:14;4.73;;;2.10;;
35364;SDS011;21464;48.112;11.530;2022-09-17T14:35:43;3.03;;;2.50;;
35364;SDS011;21464;48.112;11.530;2022-09-17T14:38:13;3.40;;;1.93;;
35364;SDS011;21464;48.112;11.530;2022-09-17T14:40:43;3.73;;;2.10;;
35364;SDS011;21464;48.112;11.530;2022-09-17T14:43:13;4.37;;;2.00;;
35364;SDS011;21464;48.112;11.530;2022-09-17T14:45:40;4.63;;;2.40;;
35364;SDS011;21464;48.112;11.530;2022-09-17T14:56:10;2.63;;;1.63;;
35364;SDS011;21464;48.112;11.530;2022-09-17T14:58:38;1.77;;;1.50;;
35364;SDS011;21464;48.112;11.530;2022-09-17T15:01:05;3.93;;;1.57;;
35364;SDS011;21464;48.112;11.530;2022-09-17T15:03:31;1.90;;;0.90;;
35364;SDS011;21464;48.112;11.530;2022-09-17T15:05:57;1.67;;;1.00;;
35364;SDS011;21464;48.112;11.530;2022-09-17T15:08:24;1.60;;;1.50;;
35364;SDS011;21464;48.112;11.530;2022-09-17T15:10:54;1.50;;;1.40;;
35364;SDS011;21464;48.112;11.530;2022-09-17T15:13:25;1.83;;;1.50;;
35364;SDS011;21464;48.112;11.530;2022-09-17T15:18:31;2.87;;;1.73;;
35364;SDS011;21464;48.112;11.530;2022-09-17T15:20:58;1.83;;;1.50;;
35364;SDS011;21464;48.112;11.530;2022-09-17T15:23:25;0.90;;;0.90;;
35364;SDS011;21464;48.112;11.530;2022-09-17T15:25:54;2.50;;;1.30;;
35364;SDS011;21464;48.112;11.530;2022-09-17T15:28:32;0.77;;;0.77;;
35364;SDS011;21464;48.112;11.530;2022-09-17T15:30:59;1.43;;;1.30;;
35364;SDS011;21464;48.112;11.530;2022-09-17T15:33:25;0.97;;;0.97;;
35364;SDS011;21464;48.112;11.530;2022-09-17T15:38:28;1.30;;;1.20;;
35364;SDS011;21464;48.112;11.530;2022-09-17T15:40:54;1.13;;;1.00;;
35364;SDS011;21464;48.112;11.530;2022-09-17T15:43:25;0.90;;;0.90;;
35364;SDS011;21464;48.112;11.530;2022-09-17T15:45:52;1.83;;;1.20;;
35364;SDS011;21464;48.112;11.530;2022-09-17T15:50:56;2.70;;;1.40;;
35364;SDS011;21464;48.112;11.530;2022-09-17T15:53:23;1.90;;;1.30;;
35364;SDS011;21464;48.112;11.530;2022-09-17T15:55:58;2.30;;;1.23;;
35364;SDS011;21464;48.112;11.530;2022-09-17T16:00:57;2.43;;;1.33;;
35364;SDS011;21464;48.112;11.530;2022-09-17T16:06:03;1.97;;;1.17;;
35364;SDS011;21464;48.112;11.530;2022-09-17T16:08:32;3.03;;;1.47;;
35364;SDS011;21464;48.112;11.530;2022-09-17T16:10:58;2.10;;;1.20;;
35364;SDS011;21464;48.112;11.530;2022-09-17T16:13:24;1.40;;;1.03;;
35364;SDS011;21464;48.112;11.530;2022-09-17T16:15:50;1.10;;;1.10;;
35364;SDS011;21464;48.112;11.530;2022-09-17T16:18:16;1.77;;;1.10;;
35364;SDS011;21464;48.112;11.530;2022-09-17T16:20:42;1.10;;;1.10;;
35364;SDS011;21464;48.112;11.530;2022-09-17T16:23:08;1.40;;;1.27;;
35364;SDS011;21464;48.112;11.530;2022-09-17T16:25:34;1.10;;;1.00;;
35364;SDS011;21464;48.112;11.530;2022-09-17T16:28:02;3.00;;;1.23;;
35364;SDS011;21464;48.112;11.530;2022-09-17T16:30:29;0.70;;;0.70;;
35364;SDS011;21464;48.112;11.530;2022-09-17T16:32:55;1.20;;;1.17;;
35364;SDS011;21464;48.112;11.530;2022-09-17T16:35:22;0.87;;;0.87;;
35364;SDS011;21464;48.112;11.530;2022-09-17T16:37:55;0.70;;;0.70;;
35364;SDS011;21464;48.112;11.530;2022-09-17T16:40:21;0.77;;;0.70;;
35364;SDS011;21464;48.112;11.530;2022-09-17T16:42:47;1.30;;;1.03;;
35364;SDS011;21464;48.112;11.530;2022-09-17T16:45:13;1.10;;;1.00;;
35364;SDS011;21464;48.112;11.530;2022-09-17T16:47:40;0.80;;;0.80;;
35364;SDS011;21464;48.112;11.530;2022-09-17T16:50:10;1.10;;;1.10;;
35364;SDS011;21464;48.112;11.530;2022-09-17T16:52:36;1.07;;;1.07;;
35364;SDS011;21464;48.112;11.530;2022-09-17T16:55:02;2.73;;;1.27;;
35364;SDS011;21464;48.112;11.530;2022-09-17T16:57:29;1.27;;;1.10;;
35364;SDS011;21464;48.112;11.530;2022-09-17T16:59:55;2.47;;;1.03;;
35364;SDS011;21464;48.112;11.530;2022-09-17T17:02:21;1.43;;;1.30;;
35364;SDS011;21464;48.112;11.530;2022-09-17T17:04:47;1.40;;;1.30;;
35364;SDS011;21464;48.112;11.530;2022-09-17T17:07:13;2.93;;;1.50;;
35364;SDS011;21464;48.112;11.530;2022-09-17T17:09:39;1.53;;;1.40;;
35364;SDS011;21464;48.112;11.530;2022-09-17T17:12:05;1.40;;;1.30;;
35364;SDS011;21464;48.112;11.530;2022-09-17T17:14:31;2.07;;;1.30;;
35364;SDS011;21464;48.112;11.530;2022-09-17T17:16:57;1.40;;;1.30;;
35364;SDS011;21464;48.112;11.530;2022-09-17T17:19:23;1.60;;;1.40;;
35364;SDS011;21464;48.112;11.530;2022-09-17T17:21:50;2.63;;;1.40;;
35364;SDS011;21464;48.112;11.530;2022-09-17T17:24:16;2.03;;;1.60;;
35364;SDS011;21464;48.112;11.530;2022-09-17T17:26:42;2.90;;;1.20;;
35364;SDS011;21464;48.112;11.530;2022-09-17T17:29:08;1.30;;;1.20;;
35364;SDS011;21464;48.112;11.530;2022-09-17T17:31:34;1.30;;;1.20;;
35364;SDS011;21464;48.112;11.530;2022-09-17T17:34:00;1.33;;;1.10;;
35364;SDS011;21464;48.112;11.530;2022-09-17T17:36:26;2.67;;;1.40;;
35364;SDS011;21464;48.112;11.530;2022-09-17T17:38:55;3.67;;;1.40;;
35364;SDS011;21464;48.112;11.530;2022-09-17T17:41:21;1.60;;;1.20;;
35364;SDS011;21464;48.112;11.530;2022-09-17T17:43:51;3.13;;;1.50;;
35364;SDS011;21464;48.112;11.530;2022-09-17T17:46:17;1.17;;;1.10;;
35364;SDS011;21464;48.112;11.530;2022-09-17T17:48:43;2.13;;;1.03;;
35364;SDS011;21464;48.112;11.530;2022-09-17T17:51:09;1.77;;;1.40;;
35364;SDS011;21464;48.112;11.530;2022-09-17T17:53:35;2.27;;;1.27;;
35364;SDS011;21464;48.112;11.530;2022-09-17T17:56:03;1.73;;;1.43;;
35364;SDS011;21464;48.112;11.530;2022-09-17T17:58:30;1.20;;;1.17;;